Time;durP1;ratioP1;P1;durP2;ratioP2;P2;SDS_P1;SDS_P2;PMS_P1;PMS_P2;Temp;Humidity;BMP_temperature;BMP_pressure;BME280_temperature;BME280_humidity;BME280_pressure;Samples;Min_cycle;Max_cycle;Signal;HPM_P1;HPM_P2
2021/10/09 00:02:14;;;;;;;5.93;4.53;;;13.70;99.90;;;;;;6187576;23;20067;-90
2021/10/09 00:04:40;;;;;;;6.53;4.50;;;13.60;99.90;;;;;;6165805;23;20291;-90
2021/10/09 00:07:06;;;;;;;7.15;4.20;;;13.70;99.90;;;;;;6187915;23;20021;-90
2021/10/09 00:09:31;;;;;;;6.25;4.43;;;13.70;99.90;;;;;;6164575;23;20009;-92
2021/10/09 00:11:57;;;;;;;5.93;4.20;;;13.70;99.90;;;;;;6189240;23;20008;-90
2021/10/09 00:14:23;;;;;;;7.03;4.25;;;13.70;99.90;;;;;;6159573;23;20013;-90
2021/10/09 00:16:49;;;;;;;5.93;4.60;;;13.60;99.90;;;;;;6184897;23;20056;-89
2021/10/09 00:19:15;;;;;;;9.00;4.40;;;13.60;99.90;;;;;;6186163;23;20437;-96
2021/10/09 00:21:45;;;;;;;6.93;4.80;;;13.60;99.90;;;;;;6161423;23;20039;-92
2021/10/09 00:24:12;;;;;;;6.45;4.43;;;13.60;99.90;;;;;;6161429;23;20012;-90
2021/10/09 00:26:38;;;;;;;9.38;5.32;;;13.60;99.90;;;;;;6189392;23;20004;-93
2021/10/09 00:29:04;;;;;;;7.38;4.85;;;13.60;99.90;;;;;;6160674;23;20005;-90
2021/10/09 00:31:30;;;;;;;5.57;4.95;;;13.60;99.90;;;;;;6185592;23;20462;-88
2021/10/09 00:33:55;;;;;;;7.15;4.45;;;13.50;99.90;;;;;;6187917;23;20013;-95
2021/10/09 00:36:21;;;;;;;6.35;5.30;;;13.50;99.90;;;;;;6185670;23;20000;-88
2021/10/09 00:38:47;;;;;;;6.35;5.00;;;13.50;99.90;;;;;;6188683;23;20063;-89
2021/10/09 00:41:12;;;;;;;9.60;5.10;;;13.50;99.90;;;;;;6186507;23;19997;-88
2021/10/09 00:43:38;;;;;;;5.72;4.70;;;13.40;99.90;;;;;;6158528;23;20442;-88
2021/10/09 00:46:04;;;;;;;5.93;4.88;;;13.40;99.90;;;;;;6158921;23;20005;-88
2021/10/09 00:48:32;;;;;;;6.07;4.90;;;13.40;99.90;;;;;;6190631;23;20024;-88
2021/10/09 00:50:58;;;;;;;6.93;4.75;;;13.30;99.90;;;;;;6190856;23;20017;-91
2021/10/09 00:53:26;;;;;;;6.25;4.97;;;13.40;99.90;;;;;;6158744;23;20009;-89
2021/10/09 00:55:56;;;;;;;10.77;4.95;;;13.40;99.90;;;;;;6159284;23;20462;-96
2021/10/09 00:58:23;;;;;;;7.30;4.80;;;13.30;99.90;;;;;;6185468;23;20076;-96
2021/10/09 01:00:49;;;;;;;6.05;4.57;;;13.30;99.90;;;;;;6185295;23;20060;-92
2021/10/09 01:03:15;;;;;;;9.40;4.78;;;13.30;99.90;;;;;;6185110;23;20008;-89
2021/10/09 01:05:41;;;;;;;8.80;4.78;;;13.30;99.90;;;;;;6185428;23;20005;-89
2021/10/09 01:08:07;;;;;;;6.00;4.60;;;13.30;99.90;;;;;;6158822;23;20499;-89
2021/10/09 01:10:33;;;;;;;6.10;4.97;;;13.30;99.90;;;;;;6158395;23;20090;-89
2021/10/09 01:13:03;;;;;;;6.18;5.05;;;13.30;99.90;;;;;;6185909;23;20032;-90
2021/10/09 01:15:31;;;;;;;7.78;5.15;;;13.20;99.90;;;;;;6159210;23;20677;-96
2021/10/09 01:18:05;;;;;;;6.57;5.55;;;13.20;99.90;;;;;;6185309;23;20005;-96
2021/10/09 01:20:54;;;;;;;7.43;4.97;;;13.20;99.90;;;;;;6159132;23;20092;-96
2021/10/09 01:23:22;;;;;;;7.80;5.00;;;13.20;99.90;;;;;;6159388;23;20084;-89
2021/10/09 01:25:49;;;;;;;5.95;5.32;;;13.20;99.90;;;;;;6185516;23;20071;-89
2021/10/09 01:28:14;;;;;;;8.18;5.38;;;13.20;99.90;;;;;;6186060;23;20048;-89
2021/10/09 01:30:41;;;;;;;7.10;5.78;;;13.10;99.90;;;;;;6185789;23;20009;-95
2021/10/09 01:33:07;;;;;;;7.60;5.40;;;13.10;99.90;;;;;;6159079;23;20039;-96
2021/10/09 01:35:52;;;;;;;6.28;5.13;;;13.10;99.90;;;;;;6159044;23;20008;-89
2021/10/09 01:38:19;;;;;;;6.20;5.60;;;13.10;99.90;;;;;;6186075;23;20001;-96
2021/10/09 01:40:45;;;;;;;6.20;5.22;;;13.00;99.90;;;;;;6185704;23;20005;-96
2021/10/09 01:43:15;;;;;;;6.82;5.95;;;13.00;99.90;;;;;;6185245;23;20008;-96
2021/10/09 01:45:44;;;;;;;9.70;5.55;;;13.10;99.90;;;;;;6158979;23;20341;-95
2021/10/09 01:48:10;;;;;;;8.57;5.97;;;13.10;99.90;;;;;;6184474;23;20012;-93
2021/10/09 01:50:38;;;;;;;9.32;6.88;;;13.10;99.90;;;;;;6185389;23;20442;-89
2021/10/09 01:53:05;;;;;;;7.57;5.85;;;13.10;99.90;;;;;;6184718;23;20108;-89
2021/10/09 01:55:32;;;;;;;7.57;5.90;;;13.10;99.90;;;;;;6159036;23;20040;-88
2021/10/09 01:57:58;;;;;;;7.85;6.40;;;13.00;99.90;;;;;;6185278;23;20088;-89
2021/10/09 02:00:23;;;;;;;9.57;6.45;;;12.90;99.90;;;;;;6185868;23;20032;-90
2021/10/09 02:02:50;;;;;;;8.30;5.65;;;12.90;99.90;;;;;;6158412;23;20092;-96
2021/10/09 02:05:16;;;;;;;8.02;6.40;;;12.80;99.90;;;;;;6184444;23;20426;-90
2021/10/09 02:07:42;;;;;;;7.30;5.72;;;12.90;99.90;;;;;;6185105;23;20480;-89
2021/10/09 02:10:08;;;;;;;9.90;6.28;;;12.90;99.90;;;;;;6133900;23;20038;-89
2021/10/09 02:12:34;;;;;;;7.38;6.28;;;12.90;99.90;;;;;;6184637;23;20011;-88
2021/10/09 02:15:07;;;;;;;9.32;7.10;;;12.90;99.90;;;;;;6184536;23;20068;-89
2021/10/09 02:25:47;;;;;;;9.55;6.90;;;12.90;99.90;;;;;;6092534;23;20344;-96
2021/10/09 02:28:23;;;;;;;11.85;7.32;;;12.80;99.90;;;;;;6145219;23;20005;-89
2021/10/09 02:30:51;;;;;;;10.10;6.72;;;12.80;99.90;;;;;;6158726;23;20402;-96
2021/10/09 02:33:17;;;;;;;8.65;7.10;;;12.90;99.90;;;;;;6158382;23;20028;-89
2021/10/09 02:35:42;;;;;;;8.70;7.32;;;12.90;99.90;;;;;;6158818;23;20016;-89
2021/10/09 02:38:09;;;;;;;8.85;7.43;;;12.90;99.90;;;;;;6185534;23;20374;-90
2021/10/09 02:40:37;;;;;;;10.50;7.45;;;12.90;99.90;;;;;;6186912;23;20492;-96
2021/10/09 02:43:03;;;;;;;9.73;7.82;;;12.90;99.90;;;;;;6185941;23;20024;-96
2021/10/09 02:45:29;;;;;;;9.55;7.45;;;12.90;99.90;;;;;;6185313;23;20028;-88
2021/10/09 02:47:59;;;;;;;7.95;7.13;;;12.80;99.90;;;;;;6184846;23;20023;-95
2021/10/09 02:50:26;;;;;;;8.40;7.13;;;12.90;99.90;;;;;;6184239;23;20044;-90
2021/10/09 02:52:52;;;;;;;11.68;7.35;;;12.80;99.90;;;;;;6158384;23;20012;-88
2021/10/09 02:55:19;;;;;;;9.63;6.75;;;12.90;99.90;;;;;;6158473;23;20017;-88
2021/10/09 02:57:47;;;;;;;11.02;7.57;;;12.90;99.90;;;;;;6158374;23;20008;-88
2021/10/09 03:00:13;;;;;;;10.00;7.80;;;12.90;99.90;;;;;;6158086;23;20332;-88
2021/10/09 03:02:39;;;;;;;9.82;7.22;;;12.90;99.90;;;;;;6157598;23;20005;-95
2021/10/09 03:05:05;;;;;;;13.57;7.78;;;12.90;99.90;;;;;;6158804;23;20027;-92
2021/10/09 03:07:32;;;;;;;14.40;7.60;;;12.90;99.90;;;;;;6184787;23;20032;-89
2021/10/09 03:09:57;;;;;;;12.50;8.48;;;12.80;99.90;;;;;;6185102;23;20001;-89
2021/10/09 03:12:24;;;;;;;11.35;7.97;;;12.80;99.90;;;;;;6184697;23;20004;-89
2021/10/09 03:14:49;;;;;;;11.63;8.07;;;12.80;99.90;;;;;;6159007;23;20012;-95
2021/10/09 03:17:16;;;;;;;9.52;8.50;;;12.70;99.90;;;;;;6186207;23;20035;-96
2021/10/09 03:19:42;;;;;;;10.07;8.50;;;12.60;99.90;;;;;;6158144;23;20409;-90
2021/10/09 03:22:08;;;;;;;10.32;8.50;;;12.60;99.90;;;;;;6185788;23;20032;-90
2021/10/09 03:24:34;;;;;;;11.75;8.95;;;12.60;99.90;;;;;;6185458;23;20033;-89
2021/10/09 03:27:00;;;;;;;11.48;8.70;;;12.60;99.90;;;;;;6159685;23;20338;-96
2021/10/09 03:29:27;;;;;;;11.75;8.07;;;12.60;99.90;;;;;;6184999;23;20076;-93
2021/10/09 03:31:52;;;;;;;10.73;7.95;;;12.60;99.90;;;;;;6184242;23;20001;-89
2021/10/09 03:34:18;;;;;;;11.18;8.55;;;12.60;99.90;;;;;;6158210;23;20020;-89
2021/10/09 03:36:45;;;;;;;13.88;9.38;;;12.60;99.90;;;;;;6158833;23;20012;-88
2021/10/09 03:39:14;;;;;;;13.60;8.98;;;12.50;99.90;;;;;;6158514;23;20016;-90
2021/10/09 03:41:43;;;;;;;12.75;9.30;;;12.50;99.90;;;;;;6158644;23;20375;-96
2021/10/09 03:44:09;;;;;;;14.50;9.65;;;12.50;99.90;;;;;;6185504;23;20001;-95
2021/10/09 03:46:42;;;;;;;11.45;9.05;;;12.50;99.90;;;;;;6185617;23;20008;-89
2021/10/09 03:49:56;;;;;;;12.35;9.93;;;12.40;99.90;;;;;;6157647;23;20021;-91
2021/10/09 03:54:38;;;;;;;11.52;9.02;;;12.50;99.90;;;;;;6184556;23;20107;-89
2021/10/09 03:57:04;;;;;;;11.63;8.77;;;12.40;99.90;;;;;;6185445;23;20001;-89
2021/10/09 03:59:29;;;;;;;13.95;9.93;;;12.40;99.90;;;;;;6187030;23;19997;-92
2021/10/09 04:01:55;;;;;;;13.45;9.07;;;12.40;99.90;;;;;;6160503;23;20012;-89
2021/10/09 04:04:23;;;;;;;13.73;9.65;;;12.40;99.90;;;;;;6187195;23;20005;-89
2021/10/09 04:06:48;;;;;;;14.35;9.90;;;12.40;99.90;;;;;;6186120;23;20331;-96
2021/10/09 04:09:14;;;;;;;18.15;10.48;;;12.40;99.90;;;;;;6184170;23;20084;-88
2021/10/09 04:11:40;;;;;;;13.27;9.93;;;12.30;99.90;;;;;;6183326;23;20001;-89
2021/10/09 04:14:05;;;;;;;10.80;9.05;;;12.40;99.90;;;;;;6157612;23;20095;-89
2021/10/09 04:16:31;;;;;;;12.52;9.65;;;12.30;99.90;;;;;;6183556;23;19997;-95
2021/10/09 04:18:57;;;;;;;12.07;9.77;;;12.30;99.90;;;;;;6183314;23;20025;-93
2021/10/09 04:21:22;;;;;;;13.52;9.93;;;12.30;99.90;;;;;;6183432;23;19997;-88
2021/10/09 04:23:48;;;;;;;12.60;10.25;;;12.30;99.90;;;;;;6184065;23;20334;-96
2021/10/09 04:26:14;;;;;;;13.25;9.80;;;12.30;99.90;;;;;;6157393;23;20096;-89
2021/10/09 04:28:39;;;;;;;13.15;10.57;;;12.20;99.90;;;;;;6183443;23;20004;-96
2021/10/09 04:31:05;;;;;;;14.07;10.00;;;12.30;99.90;;;;;;6157673;23;20035;-89
2021/10/09 04:33:31;;;;;;;11.65;10.07;;;12.30;99.90;;;;;;6157057;23;20005;-89
2021/10/09 04:35:56;;;;;;;14.85;10.45;;;12.30;99.90;;;;;;6184162;23;20005;-88
2021/10/09 04:38:22;;;;;;;12.55;10.05;;;12.30;99.90;;;;;;6184003;23;19997;-89
2021/10/09 04:40:48;;;;;;;14.65;10.48;;;12.30;99.90;;;;;;6158131;23;20005;-96
2021/10/09 04:43:14;;;;;;;12.02;10.18;;;12.30;99.90;;;;;;6157538;23;20009;-96
2021/10/09 04:45:39;;;;;;;16.13;10.30;;;12.30;99.90;;;;;;6159347;23;20075;-96
2021/10/09 04:48:05;;;;;;;12.40;9.82;;;12.30;99.90;;;;;;6159166;23;20020;-89
2021/10/09 04:50:32;;;;;;;12.30;10.10;;;12.30;99.90;;;;;;6185048;23;20430;-89
2021/10/09 04:52:58;;;;;;;12.70;10.43;;;12.30;99.90;;;;;;6184868;23;20025;-88
2021/10/09 04:55:23;;;;;;;13.95;11.10;;;12.30;99.90;;;;;;6183862;23;20390;-96
2021/10/09 04:57:49;;;;;;;13.93;11.25;;;12.20;99.90;;;;;;6158645;23;20088;-96
2021/10/09 05:00:15;;;;;;;20.35;12.18;;;12.20;99.90;;;;;;6185455;23;20371;-88
2021/10/09 05:02:41;;;;;;;12.63;10.63;;;12.10;99.90;;;;;;6185693;23;20001;-89
2021/10/09 05:05:07;;;;;;;17.33;11.23;;;12.10;99.90;;;;;;6158398;23;20013;-89
2021/10/09 05:07:32;;;;;;;14.43;10.80;;;12.10;99.90;;;;;;6185356;23;20001;-89
2021/10/09 05:09:58;;;;;;;15.20;11.90;;;12.10;99.90;;;;;;6190425;23;20324;-88
2021/10/09 05:12:25;;;;;;;14.50;10.45;;;12.20;99.90;;;;;;6164544;23;20028;-93
2021/10/09 05:14:50;;;;;;;13.60;11.27;;;12.10;99.90;;;;;;6191304;23;20008;-89
2021/10/09 05:17:16;;;;;;;15.90;11.48;;;12.10;99.90;;;;;;6166157;23;20044;-89
2021/10/09 05:19:42;;;;;;;12.73;11.40;;;12.10;99.90;;;;;;6165999;23;20008;-89
2021/10/09 05:22:08;;;;;;;14.93;12.07;;;12.00;99.90;;;;;;6163997;23;20095;-88
2021/10/09 05:24:34;;;;;;;14.32;11.65;;;12.10;99.90;;;;;;6194223;23;19997;-89
2021/10/09 05:27:00;;;;;;;13.57;11.07;;;12.00;99.90;;;;;;6170321;23;20009;-88
2021/10/09 05:29:26;;;;;;;13.77;11.30;;;12.10;99.90;;;;;;6188153;23;20064;-95
2021/10/09 05:31:53;;;;;;;14.30;11.65;;;12.10;99.90;;;;;;6156702;23;20044;-88
2021/10/09 05:34:19;;;;;;;14.02;11.52;;;12.10;99.90;;;;;;6194428;23;20011;-85
2021/10/09 05:36:45;;;;;;;13.48;11.68;;;12.00;99.90;;;;;;6165076;23;20004;-87
2021/10/09 05:39:11;;;;;;;15.25;11.85;;;12.00;99.90;;;;;;6168079;23;20064;-87
2021/10/09 05:41:37;;;;;;;16.08;12.85;;;12.00;99.90;;;;;;6169905;23;20001;-87
2021/10/09 05:44:03;;;;;;;17.00;12.30;;;11.90;99.90;;;;;;6194689;23;20008;-88
2021/10/09 05:46:29;;;;;;;14.35;11.48;;;11.90;99.90;;;;;;6195693;23;20019;-88
2021/10/09 05:48:56;;;;;;;16.23;12.82;;;11.90;99.90;;;;;;6172579;23;20020;-89
2021/10/09 05:51:25;;;;;;;15.52;12.60;;;11.90;99.90;;;;;;6197127;23;19997;-90
2021/10/09 05:56:46;;;;;;;19.30;12.38;;;11.90;99.90;;;;;;6202515;23;20044;-91
2021/10/09 07:00:41;;;;;;;21.42;15.07;;;11.90;99.90;;;;;;6190143;23;20012;-86
2021/10/09 07:03:07;;;;;;;20.60;15.45;;;11.90;99.90;;;;;;6188904;23;20052;-94
2021/10/09 07:05:34;;;;;;;18.42;14.35;;;11.90;99.90;;;;;;6165793;23;20381;-90
2021/10/09 07:08:09;;;;;;;21.90;14.25;;;11.90;99.90;;;;;;6167580;23;20198;-90
2021/10/09 07:10:40;;;;;;;21.95;14.80;;;11.90;99.90;;;;;;6162809;23;20051;-91
2021/10/09 07:13:07;;;;;;;19.27;13.93;;;12.00;99.90;;;;;;6158640;23;20005;-92
2021/10/09 07:15:35;;;;;;;20.48;13.65;;;12.10;99.90;;;;;;6156316;23;20020;-92
2021/10/09 07:18:01;;;;;;;19.73;15.32;;;12.20;99.90;;;;;;6156000;23;20457;-91
2021/10/09 07:20:27;;;;;;;17.85;14.30;;;12.30;99.90;;;;;;6159197;23;20012;-91
2021/10/09 07:22:54;;;;;;;19.23;14.02;;;12.20;99.90;;;;;;6184728;23;20020;-91
2021/10/09 07:25:20;;;;;;;16.77;13.52;;;12.20;99.90;;;;;;6158501;23;20008;-92
2021/10/09 07:27:46;;;;;;;18.25;13.70;;;12.30;99.90;;;;;;6158341;23;20092;-91
2021/10/09 07:30:13;;;;;;;17.45;13.38;;;12.30;99.90;;;;;;6156856;23;20001;-92
2021/10/09 07:32:39;;;;;;;17.55;13.45;;;12.40;99.90;;;;;;6157295;23;20005;-92
2021/10/09 07:35:05;;;;;;;18.42;13.95;;;12.50;99.90;;;;;;6158192;23;20100;-91
2021/10/09 07:37:31;;;;;;;23.33;14.15;;;12.60;99.90;;;;;;6157160;23;20001;-92
2021/10/09 07:39:57;;;;;;;18.40;13.75;;;12.60;99.90;;;;;;6156940;23;20339;-92
2021/10/09 07:42:23;;;;;;;19.63;13.10;;;12.70;99.90;;;;;;6183727;23;20008;-92
2021/10/09 07:44:50;;;;;;;17.88;13.75;;;12.70;99.90;;;;;;6159458;23;20008;-91
2021/10/09 07:47:17;;;;;;;18.65;14.00;;;12.80;99.90;;;;;;6160334;23;20067;-92
2021/10/09 07:49:43;;;;;;;17.08;13.50;;;12.90;99.90;;;;;;6162636;23;20017;-95
2021/10/09 07:52:09;;;;;;;17.25;13.65;;;13.00;99.90;;;;;;6164936;23;20012;-93
2021/10/09 07:54:35;;;;;;;18.38;13.25;;;13.10;99.90;;;;;;6165591;23;20012;-94
2021/10/09 07:57:00;;;;;;;19.30;13.90;;;13.10;99.90;;;;;;6164533;23;20059;-93
2021/10/09 07:59:26;;;;;;;18.83;13.57;;;13.20;99.90;;;;;;6161921;23;20009;-93
2021/10/09 08:01:52;;;;;;;17.98;13.55;;;13.30;99.90;;;;;;6163172;23;20224;-94
2021/10/09 08:04:18;;;;;;;19.05;12.77;;;13.30;99.90;;;;;;6167942;23;20347;-94
2021/10/09 08:06:44;;;;;;;19.80;14.30;;;13.30;99.90;;;;;;6194710;23;19989;-91
2021/10/09 08:09:10;;;;;;;18.75;14.10;;;13.30;99.90;;;;;;6167156;23;20067;-94
2021/10/09 08:11:36;;;;;;;16.90;13.35;;;13.40;99.90;;;;;;6166731;23;20254;-94
2021/10/09 08:14:03;;;;;;;17.88;14.13;;;13.40;99.90;;;;;;6168062;23;20005;-93
2021/10/09 08:16:30;;;;;;;16.35;13.05;;;13.40;99.90;;;;;;6167877;23;20052;-94
2021/10/09 08:18:57;;;;;;;22.00;13.18;;;13.50;99.90;;;;;;6166486;23;20008;-94
2021/10/09 08:21:25;;;;;;;17.75;13.27;;;13.60;99.90;;;;;;6194144;23;19989;-94
2021/10/09 08:39:41;;;;;;;16.77;12.25;;;14.30;99.90;;;;;;6193186;23;20048;-94
2021/10/09 08:42:09;;;;;;;17.08;11.95;;;14.40;99.90;;;;;;6184315;23;20114;-96
2021/10/09 08:44:35;;;;;;;16.05;11.95;;;14.50;99.90;;;;;;6162555;23;20068;-93
2021/10/09 08:47:01;;;;;;;16.95;11.23;;;14.50;99.90;;;;;;6164585;23;20010;-92
2021/10/09 08:49:27;;;;;;;12.85;11.05;;;14.60;99.90;;;;;;6163417;23;20120;-94
2021/10/09 08:51:53;;;;;;;17.52;11.73;;;14.70;99.90;;;;;;6165225;23;19997;-94
2021/10/09 08:54:19;;;;;;;15.30;12.10;;;14.80;99.90;;;;;;6167031;23;20009;-88
2021/10/09 08:56:48;;;;;;;14.18;11.90;;;14.80;99.90;;;;;;6166246;23;20005;-85
2021/10/09 08:59:28;;;;;;;15.85;11.65;;;14.80;99.90;;;;;;6192340;23;20388;-88
2021/10/09 09:02:24;;;;;;;14.23;11.75;;;14.90;99.90;;;;;;6192032;23;19991;-84
2021/10/09 09:32:33;;;;;;;11.95;10.15;;;15.90;99.90;;;;;;6193610;23;20008;-84
2021/10/09 09:40:36;;;;;;;12.32;10.13;;;16.20;99.90;;;;;;6143918;23;20004;-84
2021/10/09 09:43:02;;;;;;;13.60;9.85;;;16.30;99.90;;;;;;6189431;23;20185;-85
2021/10/09 09:45:28;;;;;;;11.65;9.70;;;16.40;99.90;;;;;;6192223;23;20030;-85
2021/10/09 09:47:56;;;;;;;10.90;9.00;;;16.50;99.90;;;;;;6166696;23;20040;-84
2021/10/09 09:50:22;;;;;;;14.25;9.15;;;16.60;99.90;;;;;;6192384;23;20004;-85
2021/10/09 09:52:48;;;;;;;10.30;8.50;;;16.60;99.90;;;;;;6192405;23;20012;-85
2021/10/09 09:55:16;;;;;;;12.88;9.68;;;16.70;99.90;;;;;;6193773;23;20013;-85
2021/10/09 09:57:43;;;;;;;14.48;9.13;;;16.70;99.90;;;;;;6190373;23;19997;-85
2021/10/09 10:00:16;;;;;;;11.63;9.07;;;16.80;99.90;;;;;;6192823;23;20060;-85
2021/10/09 10:02:46;;;;;;;14.18;9.90;;;16.90;99.90;;;;;;6191279;23;20296;-85
2021/10/09 10:05:12;;;;;;;12.40;9.55;;;16.90;99.90;;;;;;6165358;23;20060;-85
2021/10/09 10:07:39;;;;;;;14.40;9.10;;;17.00;99.90;;;;;;6165427;23;20048;-84
2021/10/09 10:10:06;;;;;;;13.05;9.68;;;17.00;99.90;;;;;;6192839;23;19997;-85
2021/10/09 10:12:33;;;;;;;11.10;8.48;;;17.10;99.90;;;;;;6164871;23;20032;-85
2021/10/09 10:15:00;;;;;;;12.57;8.68;;;17.20;99.90;;;;;;6190622;23;20055;-85
2021/10/09 10:17:43;;;;;;;11.57;8.10;;;17.30;99.90;;;;;;6193065;23;20351;-84
2021/10/09 10:20:12;;;;;;;9.30;8.13;;;17.50;99.90;;;;;;6192325;23;20032;-85
2021/10/09 10:22:40;;;;;;;10.43;8.30;;;17.50;99.90;;;;;;6193268;23;20001;-85
2021/10/09 10:25:25;;;;;;;10.05;8.55;;;17.50;99.90;;;;;;6192097;23;20240;-84
2021/10/09 10:28:03;;;;;;;10.25;7.35;;;17.60;99.90;;;;;;6189639;23;20157;-85
2021/10/09 10:30:40;;;;;;;9.45;7.70;;;17.60;99.90;;;;;;6164633;23;20024;-85
2021/10/09 10:33:06;;;;;;;9.60;7.22;;;17.70;99.90;;;;;;6166335;23;20378;-85
2021/10/09 10:35:31;;;;;;;9.70;7.22;;;17.80;99.90;;;;;;6166429;23;20001;-84
2021/10/09 10:38:25;;;;;;;10.27;7.13;;;17.80;99.90;;;;;;6192681;23;20048;-84
2021/10/09 10:40:57;;;;;;;8.85;7.95;;;17.90;99.90;;;;;;6191856;23;19993;-85
2021/10/09 10:43:34;;;;;;;9.88;6.88;;;18.00;99.90;;;;;;6192506;23;20020;-84
2021/10/09 10:46:05;;;;;;;7.22;6.32;;;18.10;99.90;;;;;;6192712;23;20185;-84
2021/10/09 10:49:37;;;;;;;8.20;7.18;;;18.20;99.90;;;;;;6192330;23;20056;-84
2021/10/09 10:54:22;;;;;;;;;;;18.30;99.90;;;;;;6192809;23;20037;-85
2021/10/09 10:57:03;;;;;;;11.38;7.13;;;18.40;99.90;;;;;;6192278;23;19900;-85
2021/10/09 11:00:09;;;;;;;9.52;6.90;;;18.60;99.90;;;;;;6191417;23;20052;-84
2021/10/09 11:02:39;;;;;;;10.23;6.63;;;18.60;99.90;;;;;;6186879;23;19997;-85
2021/10/09 11:05:13;;;;;;;8.07;6.35;;;18.60;99.90;;;;;;6193093;23;20202;-84
2021/10/09 11:07:43;;;;;;;8.65;6.88;;;18.70;99.90;;;;;;6166771;23;20340;-85
2021/10/09 11:10:18;;;;;;;7.05;6.07;;;18.80;99.90;;;;;;6190606;23;19993;-85
2021/10/09 11:12:46;;;;;;;16.25;6.57;;;18.90;99.90;;;;;;6191822;23;20008;-86
2021/10/09 11:15:22;;;;;;;9.70;6.20;;;19.00;99.90;;;;;;6191992;23;20005;-88
2021/10/09 11:18:08;;;;;;;9.52;6.78;;;19.10;99.90;;;;;;6164366;23;20056;-86
2021/10/09 11:20:42;;;;;;;7.03;6.00;;;19.10;99.90;;;;;;6190628;23;20277;-86
2021/10/09 11:23:10;;;;;;;8.52;6.28;;;19.20;99.90;;;;;;6163304;23;20005;-86
2021/10/09 11:25:39;;;;;;;9.45;6.22;;;19.30;99.90;;;;;;6192582;23;19997;-86
2021/10/09 11:28:06;;;;;;;6.68;5.65;;;19.40;99.90;;;;;;6192465;23;20039;-86
2021/10/09 11:30:33;;;;;;;7.28;5.60;;;19.40;99.90;;;;;;6190688;23;19996;-85
2021/10/09 11:32:59;;;;;;;8.90;6.25;;;19.40;99.90;;;;;;6192434;23;20047;-86
2021/10/09 11:35:43;;;;;;;8.05;6.13;;;19.50;99.90;;;;;;6191513;23;20056;-86
2021/10/09 11:38:20;;;;;;;7.65;6.75;;;19.60;99.90;;;;;;6192070;23;19996;-85
2021/10/09 11:40:52;;;;;;;7.00;5.88;;;19.60;99.90;;;;;;6191203;23;20345;-85
2021/10/09 11:43:35;;;;;;;8.90;6.43;;;19.60;99.90;;;;;;6192138;23;20193;-86
2021/10/09 11:46:27;;;;;;;7.82;5.95;;;19.80;99.90;;;;;;6191703;23;19989;-85
2021/10/09 11:54:46;;;;;;;7.60;6.22;;;20.00;99.90;;;;;;6192118;23;20015;-85
2021/10/09 11:57:12;;;;;;;6.20;4.70;;;20.00;99.90;;;;;;6192105;23;19989;-85
2021/10/09 11:59:39;;;;;;;7.57;6.07;;;20.00;99.90;;;;;;6191080;23;20045;-85
2021/10/09 12:02:06;;;;;;;7.85;5.65;;;20.00;99.90;;;;;;6191738;23;19993;-86
2021/10/09 12:04:32;;;;;;;5.95;5.22;;;20.10;99.90;;;;;;6191970;23;20000;-85
2021/10/09 12:07:09;;;;;;;6.55;5.20;;;20.20;99.90;;;;;;6192458;23;19992;-86
2021/10/09 12:09:36;;;;;;;8.43;6.47;;;20.20;99.90;;;;;;6191409;23;19993;-86
2021/10/09 12:12:19;;;;;;;8.15;6.10;;;20.40;99.90;;;;;;6165613;23;19998;-85
2021/10/09 12:14:46;;;;;;;7.60;6.30;;;20.50;99.90;;;;;;6192064;23;19997;-86
2021/10/09 12:17:12;;;;;;;6.90;5.85;;;20.70;99.90;;;;;;6191868;23;20212;-85
2021/10/09 12:19:38;;;;;;;9.68;5.90;;;20.70;99.90;;;;;;6191095;23;19989;-86
2021/10/09 12:22:10;;;;;;;7.90;5.68;;;20.80;99.90;;;;;;6165219;23;20060;-86
2021/10/09 12:24:49;;;;;;;7.72;6.00;;;20.70;99.90;;;;;;6165603;23;20057;-86
2021/10/09 12:27:22;;;;;;;8.35;6.10;;;20.70;99.90;;;;;;6165610;23;19997;-85
2021/10/09 12:30:00;;;;;;;9.48;6.50;;;20.80;99.90;;;;;;6191198;23;19996;-86
2021/10/09 12:32:27;;;;;;;7.97;5.57;;;20.80;99.90;;;;;;6165467;23;20332;-86
2021/10/09 12:35:30;;;;;;;7.50;6.00;;;20.80;99.90;;;;;;6191975;23;20000;-86
2021/10/09 12:38:04;;;;;;;8.18;6.35;;;20.90;99.90;;;;;;6071964;23;20306;-86
2021/10/09 12:40:40;;;;;;;;;;;21.00;99.90;;;;;;6174431;23;20429;-85
2021/10/09 12:43:13;;;;;;;7.95;6.35;;;21.10;99.90;;;;;;6166956;23;19896;-85
2021/10/09 12:45:41;;;;;;;9.00;6.60;;;21.10;99.90;;;;;;6192944;23;20020;-85
2021/10/09 12:48:07;;;;;;;7.68;5.82;;;21.00;99.90;;;;;;6192799;23;20009;-86
2021/10/09 12:50:39;;;;;;;7.25;6.28;;;21.10;99.90;;;;;;6192974;23;19997;-86
2021/10/09 12:53:05;;;;;;;8.10;5.70;;;21.20;99.90;;;;;;6167598;23;20016;-85
2021/10/09 12:55:35;;;;;;;9.15;5.63;;;21.20;99.90;;;;;;6193766;23;20001;-85
2021/10/09 12:58:04;;;;;;;7.60;5.95;;;21.30;99.90;;;;;;6193025;23;19989;-85
2021/10/09 13:00:31;;;;;;;8.20;5.65;;;21.40;99.90;;;;;;6192803;23;20299;-87
2021/10/09 13:02:57;;;;;;;6.72;4.97;;;21.40;99.90;;;;;;6192806;23;19993;-84
2021/10/09 13:05:25;;;;;;;6.40;5.20;;;21.50;99.90;;;;;;6194000;23;20007;-86
2021/10/09 13:07:52;;;;;;;7.43;5.85;;;21.70;99.90;;;;;;6193240;23;19993;-84
2021/10/09 13:10:19;;;;;;;7.32;5.80;;;21.70;99.90;;;;;;6192180;23;20065;-84
2021/10/09 13:12:46;;;;;;;5.38;4.88;;;21.70;99.90;;;;;;6166813;23;20020;-85
2021/10/09 13:15:17;;;;;;;7.05;5.60;;;21.80;99.90;;;;;;6167276;23;20352;-85
2021/10/09 13:17:46;;;;;;;7.75;5.85;;;21.80;99.90;;;;;;6192216;23;20357;-85
2021/10/09 13:20:12;;;;;;;7.25;5.53;;;21.90;99.90;;;;;;6164978;23;20001;-86
2021/10/09 13:22:38;;;;;;;6.32;5.07;;;21.90;99.90;;;;;;6191926;23;20277;-85
2021/10/09 13:25:05;;;;;;;5.68;5.07;;;22.00;99.90;;;;;;6192343;23;19993;-85
2021/10/09 13:27:31;;;;;;;6.03;5.03;;;22.10;99.90;;;;;;6191752;23;20060;-85
2021/10/09 13:29:58;;;;;;;6.47;5.53;;;22.20;99.90;;;;;;6191897;23;19993;-85
2021/10/09 13:32:24;;;;;;;7.78;5.38;;;22.20;99.90;;;;;;6192935;23;19996;-85
2021/10/09 13:34:50;;;;;;;5.65;4.82;;;22.20;99.90;;;;;;6193908;23;20001;-85
2021/10/09 13:37:21;;;;;;;6.28;4.95;;;22.10;99.60;;;;;;6193754;23;19996;-85
2021/10/09 13:39:47;;;;;;;7.32;4.82;;;22.10;99.90;;;;;;6192737;23;19993;-85
2021/10/09 13:42:13;;;;;;;5.78;4.97;;;22.10;99.90;;;;;;6193023;23;20000;-85
2021/10/09 13:44:39;;;;;;;6.63;5.00;;;22.20;99.90;;;;;;6193671;23;19996;-85
2021/10/09 13:47:05;;;;;;;8.52;5.05;;;22.30;99.70;;;;;;6188647;23;20001;-84
2021/10/09 13:49:31;;;;;;;5.00;4.22;;;22.20;99.70;;;;;;6192342;23;20043;-84
2021/10/09 13:51:57;;;;;;;9.05;4.90;;;22.10;99.50;;;;;;6191585;23;19993;-85
2021/10/09 13:54:23;;;;;;;5.90;4.80;;;22.00;98.40;;;;;;6191563;23;20327;-84
2021/10/09 13:56:49;;;;;;;6.63;4.47;;;21.90;98.70;;;;;;6181767;23;20002;-85
2021/10/09 13:59:14;;;;;;;6.47;4.43;;;21.90;99.00;;;;;;6181299;23;20063;-85
2021/10/09 14:01:42;;;;;;;6.15;4.93;;;22.10;98.80;;;;;;6190753;23;20024;-84
2021/10/09 14:04:09;;;;;;;6.47;4.50;;;22.30;98.30;;;;;;6186995;23;20012;-84
2021/10/09 14:06:35;;;;;;;5.15;4.55;;;22.40;98.30;;;;;;6188800;23;20020;-85
2021/10/09 14:09:02;;;;;;;5.85;4.25;;;22.50;97.90;;;;;;6191920;23;20221;-85
2021/10/09 14:11:27;;;;;;;5.03;4.53;;;22.70;97.20;;;;;;6190564;23;20040;-85
2021/10/09 14:13:53;;;;;;;5.45;4.40;;;22.90;97.50;;;;;;6192579;23;19997;-85
2021/10/09 14:16:19;;;;;;;4.78;4.03;;;23.00;97.60;;;;;;6166835;23;19997;-83
2021/10/09 14:18:44;;;;;;;5.50;4.57;;;23.10;97.50;;;;;;6192011;23;19993;-87
2021/10/09 14:21:10;;;;;;;6.53;4.90;;;23.20;96.40;;;;;;6183669;23;20005;-77
2021/10/09 14:23:39;;;;;;;7.05;5.45;;;23.20;96.00;;;;;;6160657;23;20453;-77
2021/10/09 14:26:04;;;;;;;6.45;5.68;;;23.20;96.30;;;;;;6189160;23;19997;-77
2021/10/09 14:28:30;;;;;;;10.23;5.30;;;23.10;96.80;;;;;;6163672;23;20077;-77
2021/10/09 14:30:56;;;;;;;5.57;4.65;;;22.90;96.70;;;;;;6191120;23;20027;-77
2021/10/09 14:33:21;;;;;;;7.53;4.90;;;22.90;96.70;;;;;;6191255;23;19997;-77
2021/10/09 14:35:48;;;;;;;7.10;5.53;;;22.90;96.80;;;;;;6192506;23;20072;-77
2021/10/09 14:38:14;;;;;;;6.63;5.25;;;23.10;96.20;;;;;;6187580;23;20060;-77
2021/10/09 14:40:42;;;;;;;6.35;5.18;;;23.10;96.40;;;;;;6185988;23;20101;-77
2021/10/09 14:43:08;;;;;;;6.00;4.68;;;23.30;95.80;;;;;;6187614;23;20024;-77
2021/10/09 14:45:34;;;;;;;5.28;4.70;;;23.50;96.50;;;;;;6191118;23;19993;-77
2021/10/09 15:19:41;;;;;;;4.63;3.72;;;29.00;79.10;;;;;;6185034;23;20296;-78
2021/10/09 15:22:08;;;;;;;4.60;3.67;;;30.10;77.80;;;;;;6190272;23;20025;-77
2021/10/09 15:24:34;;;;;;;4.57;3.55;;;31.40;74.60;;;;;;6193094;23;20035;-78
2021/10/09 15:27:00;;;;;;;5.97;3.83;;;32.60;71.30;;;;;;6190977;23;20032;-77
2021/10/09 15:29:26;;;;;;;5.60;3.90;;;33.90;66.90;;;;;;6188744;23;19993;-79
2021/10/09 15:31:51;;;;;;;3.80;3.25;;;34.20;64.40;;;;;;6189351;23;20000;-78